createdAt,value
2023-09-06T00:00:16.908Z,5.30
2023-09-06T00:03:02.499Z,4.75
2023-09-06T00:05:48.282Z,6.65
2023-09-06T00:08:35.775Z,7.03
2023-09-06T00:11:21.594Z,4.68
2023-09-06T00:14:07.919Z,7.20
2023-09-06T00:16:55.222Z,6.30
2023-09-06T00:19:40.849Z,7.05
2023-09-06T00:22:26.427Z,6.10
2023-09-06T00:25:12.018Z,6.10
2023-09-06T00:28:00.869Z,7.60
2023-09-06T00:30:46.993Z,8.73
2023-09-06T00:33:34.828Z,8.88
2023-09-06T00:36:20.419Z,6.80
2023-09-06T00:39:07.555Z,13.10
2023-09-06T00:41:53.325Z,6.68
2023-09-06T00:44:38.934Z,6.15
2023-09-06T00:47:24.798Z,5.72
2023-09-06T00:50:12.377Z,7.10
2023-09-06T00:52:58.627Z,8.02
2023-09-06T00:55:44.775Z,7.80
2023-09-06T00:58:31.539Z,8.23
2023-09-06T01:01:17.717Z,8.27
2023-09-06T01:04:04.253Z,7.70
2023-09-06T01:06:58.506Z,6.53
2023-09-06T01:09:45.181Z,6.72
2023-09-06T01:12:30.983Z,6.00
2023-09-06T01:15:17.052Z,6.63
2023-09-06T01:18:05.985Z,7.45
2023-09-06T01:20:57.806Z,6.53
2023-09-06T01:23:46.129Z,6.85
2023-09-06T01:26:33.416Z,8.43
2023-09-06T01:29:19.530Z,7.53
2023-09-06T01:32:06.545Z,7.10
2023-09-06T01:34:55.501Z,8.70
2023-09-06T01:37:41.619Z,9.50
2023-09-06T01:40:29.118Z,7.43
2023-09-06T01:43:14.969Z,7.10
2023-09-06T01:46:00.877Z,9.27
2023-09-06T01:48:48.098Z,8.57
2023-09-06T01:51:33.901Z,7.13
2023-09-06T01:54:20.199Z,8.65
2023-09-06T01:57:07.561Z,9.02
2023-09-06T01:59:53.503Z,8.13
2023-09-06T02:02:39.405Z,8.27
2023-09-06T02:05:25.877Z,7.00
2023-09-06T02:08:12.674Z,7.65
2023-09-06T02:10:58.240Z,7.70
2023-09-06T02:13:46.518Z,9.00
2023-09-06T02:16:32.449Z,13.15
2023-09-06T02:19:18.908Z,7.25
2023-09-06T02:22:05.401Z,8.68
2023-09-06T02:24:51.510Z,6.78
2023-09-06T02:27:38.172Z,6.78
2023-09-06T02:30:25.135Z,13.32
2023-09-06T02:33:14.983Z,10.05
2023-09-06T02:36:00.867Z,6.72
2023-09-06T02:38:48.260Z,6.35
2023-09-06T02:41:34.437Z,8.30
2023-09-06T02:44:19.968Z,11.82
2023-09-06T02:47:10.746Z,6.53
2023-09-06T02:50:01.808Z,6.63
2023-09-06T02:52:48.076Z,6.40
2023-09-06T02:55:36.596Z,7.85
2023-09-06T02:58:27.291Z,10.90
2023-09-06T03:01:21.054Z,9.23
2023-09-06T03:04:09.561Z,6.90
2023-09-06T03:06:55.623Z,9.52
2023-09-06T03:09:43.658Z,7.82
2023-09-06T03:12:30.365Z,9.00
2023-09-06T03:15:16.777Z,6.82
2023-09-06T03:18:06.069Z,7.07
2023-09-06T03:20:56.543Z,9.30
2023-09-06T03:23:46.942Z,6.20
2023-09-06T03:26:34.503Z,9.32
2023-09-06T03:29:23.730Z,6.97
2023-09-06T03:32:10.173Z,9.25
2023-09-06T03:34:57.813Z,10.65
2023-09-06T03:37:44.847Z,8.80
2023-09-06T03:40:37.882Z,7.35
2023-09-06T03:43:31.947Z,7.93
2023-09-06T03:46:20.732Z,7.22
2023-09-06T03:49:08.163Z,10.38
2023-09-06T03:51:54.417Z,8.00
2023-09-06T03:54:41.886Z,7.30
2023-09-06T03:57:27.831Z,8.82
2023-09-06T04:00:33.144Z,8.25
2023-09-06T04:03:27.849Z,8.00
2023-09-06T04:06:16.977Z,9.38
2023-09-06T04:09:07.100Z,10.02
2023-09-06T04:11:54.660Z,13.32
2023-09-06T04:14:41.001Z,8.07
2023-09-06T04:17:28.951Z,8.77
2023-09-06T04:20:21.853Z,7.95
2023-09-06T04:23:09.355Z,8.88
2023-09-06T04:28:51.692Z,9.75
2023-09-06T04:31:42.654Z,12.55
2023-09-06T04:34:30.389Z,9.18
2023-09-06T04:37:19.718Z,9.95
2023-09-06T04:42:55.504Z,13.52
2023-09-06T04:45:43.326Z,10.05
2023-09-06T04:48:31.086Z,7.97
2023-09-06T04:51:19.844Z,9.30
2023-09-06T04:54:05.664Z,13.07
2023-09-06T04:56:55.483Z,9.82
2023-09-06T04:59:43.610Z,11.32
2023-09-06T05:02:30.962Z,9.95
2023-09-06T05:05:17.365Z,9.32
2023-09-06T05:08:04.702Z,13.68
2023-09-06T05:10:51.824Z,9.35
2023-09-06T05:13:39.375Z,13.38
2023-09-06T05:16:27.680Z,10.65
2023-09-06T05:19:17.856Z,8.53
2023-09-06T05:22:03.566Z,9.82
2023-09-06T05:24:51.402Z,9.77
2023-09-06T05:27:38.469Z,9.65
2023-09-06T05:30:24.513Z,10.15
2023-09-06T05:33:11.275Z,9.70
2023-09-06T05:36:00.065Z,13.00
2023-09-06T05:38:46.464Z,10.85
2023-09-06T05:41:33.516Z,6.95
2023-09-06T05:44:19.430Z,9.73
2023-09-06T05:47:06.801Z,7.65
2023-09-06T05:49:56.788Z,8.27
2023-09-06T05:52:44.441Z,11.20
2023-09-06T05:55:30.018Z,6.10
2023-09-06T05:58:17.320Z,9.95
2023-09-06T06:01:03.488Z,6.50
2023-09-06T06:03:49.548Z,7.97
2023-09-06T06:06:36.199Z,6.20
2023-09-06T06:09:26.089Z,5.78
2023-09-06T06:12:11.790Z,6.28
2023-09-06T06:14:58.277Z,7.85
2023-09-06T06:17:44.215Z,6.82
2023-09-06T06:20:38.377Z,5.45
2023-09-06T06:23:31.057Z,7.15
2023-09-06T06:26:21.330Z,6.80
2023-09-06T06:29:07.117Z,6.83
2023-09-06T06:31:53.529Z,7.45
2023-09-06T06:34:40.483Z,7.28
2023-09-06T06:37:27.338Z,6.65
2023-09-06T06:40:13.156Z,6.43
2023-09-06T06:42:59.981Z,8.88
2023-09-06T06:45:48.018Z,7.30
2023-09-06T06:48:33.954Z,5.18
2023-09-06T06:51:19.545Z,5.95
2023-09-06T06:54:05.946Z,5.53
2023-09-06T06:56:51.552Z,5.60
2023-09-06T06:59:38.464Z,7.60
2023-09-06T07:02:24.140Z,7.22
2023-09-06T07:05:10.123Z,9.88
2023-09-06T07:07:56.272Z,6.35
2023-09-06T07:10:41.933Z,7.25
2023-09-06T07:13:27.937Z,9.82
2023-09-06T07:16:15.593Z,7.15
2023-09-06T07:19:01.633Z,7.65
2023-09-06T07:21:48.110Z,7.43
2023-09-06T07:24:34.080Z,5.50
2023-09-06T07:27:19.651Z,5.88
2023-09-06T07:30:06.830Z,7.25
2023-09-06T07:32:54.494Z,7.00
2023-09-06T07:35:43.385Z,5.22
2023-09-06T07:38:29.812Z,5.68
2023-09-06T07:41:15.699Z,10.88
2023-09-06T07:44:01.770Z,5.70
2023-09-06T07:46:49.990Z,6.85
2023-09-06T07:49:37.905Z,5.13
2023-09-06T07:52:23.808Z,6.55
2023-09-06T07:55:09.771Z,7.40
2023-09-06T07:57:55.541Z,4.78
2023-09-06T08:00:41.619Z,6.53
2023-09-06T08:03:27.642Z,4.88
2023-09-06T08:06:16.007Z,6.68
2023-09-06T08:09:02.198Z,4.50
2023-09-06T08:11:47.666Z,4.95
2023-09-06T08:14:34.287Z,4.22
2023-09-06T08:17:20.599Z,3.80
2023-09-06T08:20:09.944Z,5.82
2023-09-06T08:22:57.228Z,3.97
2023-09-06T08:25:43.116Z,3.40
2023-09-06T08:28:28.611Z,5.15
2023-09-06T08:31:14.727Z,4.22
2023-09-06T08:34:01.003Z,6.20
2023-09-06T08:36:46.964Z,3.58
2023-09-06T08:39:35.867Z,3.70
2023-09-06T08:42:23.721Z,7.57
2023-09-06T08:45:10.115Z,3.47
2023-09-06T08:47:56.941Z,3.78
2023-09-06T08:50:45.272Z,3.75
2023-09-06T08:53:32.471Z,5.47
2023-09-06T08:56:20.691Z,5.10
2023-09-06T08:59:08.992Z,7.63
2023-09-06T09:01:55.125Z,7.72
2023-09-06T09:04:43.268Z,2.45
2023-09-06T09:07:29.449Z,3.38
2023-09-06T09:10:15.333Z,3.67
2023-09-06T09:13:02.921Z,6.70
2023-09-06T09:15:48.828Z,5.90
2023-09-06T09:18:35.598Z,4.38
2023-09-06T09:21:21.575Z,5.57
2023-09-06T09:24:07.266Z,4.28
2023-09-06T09:26:54.305Z,3.75
2023-09-06T09:29:42.404Z,3.75
2023-09-06T09:32:30.053Z,4.15
2023-09-06T09:35:15.869Z,4.05
2023-09-06T09:38:02.765Z,2.42
2023-09-06T09:41:07.005Z,3.05
2023-09-06T09:44:13.920Z,2.75
2023-09-06T09:47:31.160Z,2.88
2023-09-06T09:50:18.349Z,2.38
2023-09-06T09:53:18.968Z,2.53
2023-09-06T09:56:08.473Z,2.53
2023-09-06T09:58:55.934Z,2.72
2023-09-06T10:01:42.548Z,2.67
2023-09-06T10:04:30.800Z,4.90
2023-09-06T10:07:20.742Z,3.65
2023-09-06T10:10:07.813Z,3.53
2023-09-06T10:12:54.313Z,3.72
2023-09-06T10:15:40.212Z,4.78
2023-09-06T10:18:25.917Z,4.43
2023-09-06T10:21:14.594Z,3.55
2023-09-06T10:24:01.850Z,3.55
2023-09-06T10:26:48.863Z,5.22
2023-09-06T10:30:03.222Z,4.97
2023-09-06T10:32:49.656Z,2.90
2023-09-06T10:35:42.889Z,5.07
2023-09-06T10:38:31.831Z,2.75
2023-09-06T10:41:19.874Z,4.75
2023-09-06T10:44:07.599Z,5.68
2023-09-06T10:46:53.378Z,4.25
2023-09-06T10:49:39.079Z,3.50
2023-09-06T10:52:40.205Z,3.25
2023-09-06T10:58:14.480Z,3.38
2023-09-06T11:01:19.090Z,2.65
2023-09-06T11:04:15.426Z,2.78
2023-09-06T11:07:05.407Z,2.83
2023-09-06T11:09:52.710Z,5.38
2023-09-06T11:12:40.211Z,2.10
2023-09-06T11:15:25.964Z,6.40
2023-09-06T11:18:12.003Z,4.18
2023-09-06T11:21:00.288Z,2.42
2023-09-06T11:23:47.644Z,2.50
2023-09-06T11:26:35.985Z,4.30
2023-09-06T11:29:27.258Z,2.90
2023-09-06T11:32:13.617Z,3.97
2023-09-06T11:34:59.333Z,4.28
2023-09-06T11:37:50.306Z,2.13
2023-09-06T11:40:36.737Z,2.08
2023-09-06T11:43:25.232Z,2.75
2023-09-06T11:46:15.443Z,2.28
2023-09-06T11:49:01.546Z,3.72
2023-09-06T11:51:49.018Z,6.38
2023-09-06T11:54:39.959Z,3.72
2023-09-06T11:57:31.427Z,2.08
2023-09-06T12:00:29.488Z,4.15
2023-09-06T12:03:17.888Z,2.90
2023-09-06T12:06:07.047Z,3.72
2023-09-06T12:08:52.805Z,3.83
2023-09-06T12:11:39.221Z,2.95
2023-09-06T12:14:25.367Z,3.15
2023-09-06T12:17:12.616Z,3.20
2023-09-06T12:20:00.350Z,3.92
2023-09-06T12:22:46.987Z,2.35
2023-09-06T12:25:32.899Z,2.35
2023-09-06T12:28:18.755Z,4.95
2023-09-06T12:31:16.558Z,3.85
2023-09-06T12:34:04.841Z,3.55
2023-09-06T12:36:52.230Z,5.10
2023-09-06T12:39:38.161Z,3.38
2023-09-06T12:42:23.737Z,4.03
2023-09-06T12:45:10.772Z,4.20
2023-09-06T12:47:58.291Z,3.92
2023-09-06T12:50:44.145Z,5.10
2023-09-06T12:53:31.477Z,5.57
2023-09-06T12:56:19.758Z,3.15
2023-09-06T12:59:06.803Z,5.45
2023-09-06T13:01:52.950Z,3.38
2023-09-06T13:04:38.870Z,5.32
2023-09-06T13:07:24.707Z,3.67
2023-09-06T13:10:11.895Z,5.80
2023-09-06T13:12:58.012Z,4.53
2023-09-06T13:15:43.515Z,9.57
2023-09-06T13:18:30.092Z,5.78
2023-09-06T13:21:16.606Z,3.53
2023-09-06T13:24:02.598Z,6.30
2023-09-06T13:26:54.497Z,3.97
2023-09-06T13:29:40.523Z,3.17
2023-09-06T13:32:26.975Z,3.58
2023-09-06T13:35:12.990Z,3.72
2023-09-06T13:37:59.041Z,5.38
2023-09-06T13:40:45.651Z,6.13
2023-09-06T13:43:33.238Z,4.43
2023-09-06T13:46:19.202Z,3.95
2023-09-06T13:49:08.701Z,3.10
2023-09-06T13:51:54.906Z,3.25
2023-09-06T13:54:44.646Z,6.05
2023-09-06T13:57:30.464Z,4.75
2023-09-06T14:00:20.082Z,4.80
2023-09-06T14:03:06.260Z,2.70
2023-09-06T14:05:52.754Z,4.75
2023-09-06T14:08:40.641Z,3.70
2023-09-06T14:11:46.225Z,5.10
2023-09-06T14:14:32.810Z,4.65
2023-09-06T14:17:22.421Z,5.05
2023-09-06T14:20:10.780Z,5.25
2023-09-06T14:22:57.048Z,4.43
2023-09-06T14:25:45.051Z,2.97
2023-09-06T14:28:31.250Z,8.45
2023-09-06T14:31:19.711Z,6.07
2023-09-06T14:34:06.619Z,3.58
2023-09-06T14:36:52.809Z,4.18
2023-09-06T14:39:38.735Z,7.13
2023-09-06T14:42:24.481Z,5.45
2023-09-06T14:45:13.381Z,8.90
2023-09-06T14:47:59.523Z,3.53
2023-09-06T14:51:15.556Z,4.97
2023-09-06T14:54:02.516Z,3.17
2023-09-06T14:56:48.355Z,2.90
2023-09-06T14:59:35.813Z,4.07
2023-09-06T15:02:22.021Z,4.93
2023-09-06T15:05:09.070Z,4.72
2023-09-06T15:07:58.271Z,4.13
2023-09-06T15:10:45.839Z,2.42
2023-09-06T15:13:31.631Z,4.75
2023-09-06T15:16:17.698Z,5.18
2023-09-06T15:19:04.366Z,4.60
2023-09-06T15:21:50.628Z,4.53
2023-09-06T15:24:38.085Z,3.60
2023-09-06T15:27:24.509Z,5.05
2023-09-06T15:30:10.911Z,3.33
2023-09-06T15:32:57.104Z,5.30
2023-09-06T15:35:44.047Z,4.65
2023-09-06T15:38:31.235Z,3.08
2023-09-06T15:41:19.158Z,5.18
2023-09-06T15:44:06.055Z,3.88
2023-09-06T15:46:56.538Z,3.97
2023-09-06T15:49:44.329Z,4.57
2023-09-06T15:52:31.550Z,5.28
2023-09-06T15:55:17.844Z,3.53
2023-09-06T15:58:05.093Z,3.67
2023-09-06T16:00:50.692Z,2.65
2023-09-06T16:03:36.550Z,4.18
2023-09-06T16:06:24.060Z,3.55
2023-09-06T16:09:13.810Z,2.92
2023-09-06T16:12:00.003Z,2.60
2023-09-06T16:14:53.035Z,4.60
2023-09-06T16:17:39.426Z,2.58
2023-09-06T16:20:25.943Z,3.08
2023-09-06T16:23:11.704Z,3.10
2023-09-06T16:25:57.814Z,3.80
2023-09-06T16:28:43.943Z,3.05
2023-09-06T16:31:32.113Z,2.83
2023-09-06T16:34:18.238Z,2.55
2023-09-06T16:37:04.921Z,5.15
2023-09-06T16:39:50.771Z,4.15
2023-09-06T16:42:36.804Z,5.70
2023-09-06T16:45:22.727Z,2.50
2023-09-06T16:48:11.046Z,3.40
2023-09-06T16:50:56.967Z,3.38
2023-09-06T16:53:42.653Z,3.17
2023-09-06T16:56:28.611Z,3.92
2023-09-06T16:59:16.129Z,3.08
2023-09-06T17:02:02.266Z,2.83
2023-09-06T17:04:49.720Z,2.45
2023-09-06T17:07:36.419Z,4.55
2023-09-06T17:10:22.491Z,3.33
2023-09-06T17:13:08.630Z,3.40
2023-09-06T17:15:54.692Z,4.13
2023-09-06T17:18:45.611Z,2.83
2023-09-06T17:21:36.157Z,8.02
2023-09-06T17:24:22.316Z,3.22
2023-09-06T17:27:09.668Z,4.20
2023-09-06T17:29:59.944Z,3.78
2023-09-06T17:33:15.113Z,4.85
2023-09-06T17:36:01.064Z,5.20
2023-09-06T17:38:49.012Z,3.20
2023-09-06T17:41:35.092Z,9.73
2023-09-06T17:44:21.295Z,2.65
2023-09-06T17:47:08.271Z,4.90
2023-09-06T17:49:54.404Z,5.65
2023-09-06T17:52:40.102Z,7.50
2023-09-06T17:55:33.320Z,8.27
2023-09-06T17:58:21.250Z,6.15
2023-09-06T18:01:10.980Z,5.32
2023-09-06T18:04:01.505Z,5.32
2023-09-06T18:06:47.326Z,10.65
2023-09-06T18:09:34.759Z,3.85
2023-09-06T18:12:23.494Z,4.85
2023-09-06T18:15:13.406Z,5.60
2023-09-06T18:18:01.364Z,5.55
2023-09-06T18:20:47.634Z,4.25
2023-09-06T18:23:34.487Z,5.30
2023-09-06T18:26:22.801Z,6.47
2023-09-06T18:29:11.348Z,6.78
2023-09-06T18:31:57.466Z,6.72
2023-09-06T18:34:43.119Z,6.30
2023-09-06T18:37:29.380Z,6.28
2023-09-06T18:40:16.542Z,9.45
2023-09-06T18:43:03.566Z,5.45
2023-09-06T18:45:52.994Z,8.30
2023-09-06T18:48:40.136Z,8.30
2023-09-06T18:51:26.390Z,9.73
2023-09-06T18:54:11.898Z,8.77
2023-09-06T18:56:57.943Z,6.10
2023-09-06T18:59:43.889Z,7.97
2023-09-06T19:02:31.487Z,9.25
2023-09-06T19:05:20.782Z,5.45
2023-09-06T19:08:12.820Z,3.90
2023-09-06T19:10:59.233Z,5.50
2023-09-06T19:13:44.760Z,6.90
2023-09-06T19:16:33.777Z,9.20
2023-09-06T19:19:20.974Z,7.47
2023-09-06T19:22:07.998Z,5.82
2023-09-06T19:24:53.832Z,6.85
2023-09-06T19:27:40.545Z,5.22
2023-09-06T19:30:26.865Z,6.25
2023-09-06T19:33:15.341Z,6.80
2023-09-06T19:36:03.311Z,6.78
2023-09-06T19:38:49.072Z,8.63
2023-09-06T19:41:34.907Z,6.82
2023-09-06T19:44:20.556Z,7.38
2023-09-06T19:47:06.584Z,8.18
2023-09-06T19:49:55.484Z,8.35
2023-09-06T19:52:42.590Z,7.60
2023-09-06T19:55:35.735Z,6.40
2023-09-06T19:58:21.319Z,9.45
2023-09-06T20:01:08.768Z,10.18
2023-09-06T20:03:54.642Z,5.07
2023-09-06T20:06:40.436Z,6.70
2023-09-06T20:09:31.376Z,8.93
2023-09-06T20:12:16.823Z,5.45
2023-09-06T20:15:02.422Z,6.72
2023-09-06T20:17:48.049Z,8.38
2023-09-06T20:20:37.778Z,5.72
2023-09-06T20:23:23.930Z,6.82
2023-09-06T20:26:11.468Z,8.88
2023-09-06T20:29:01.451Z,6.82
2023-09-06T20:31:47.655Z,9.63
2023-09-06T20:34:33.749Z,5.70
2023-09-06T20:37:19.566Z,9.60
2023-09-06T20:40:07.068Z,5.25
2023-09-06T20:42:54.683Z,6.38
2023-09-06T20:45:41.177Z,9.88
2023-09-06T20:48:30.059Z,7.75
2023-09-06T20:51:16.170Z,7.43
2023-09-06T20:54:01.983Z,7.72
2023-09-06T20:56:47.934Z,6.03
2023-09-06T20:59:35.092Z,5.60
2023-09-06T21:02:21.013Z,6.53
2023-09-06T21:05:07.279Z,7.65
2023-09-06T21:07:53.349Z,8.15
2023-09-06T21:10:39.229Z,5.65
2023-09-06T21:13:25.926Z,8.77
2023-09-06T21:16:12.939Z,6.00
2023-09-06T21:18:59.259Z,7.65
2023-09-06T21:21:45.214Z,5.53
2023-09-06T21:24:31.290Z,6.88
2023-09-06T21:27:16.873Z,5.47
2023-09-06T21:30:03.122Z,5.93
2023-09-06T21:32:50.807Z,5.93
2023-09-06T21:35:41.828Z,6.88
2023-09-06T21:38:27.306Z,9.02
2023-09-06T21:41:13.383Z,6.63
2023-09-06T21:44:00.236Z,5.90
2023-09-06T21:46:45.885Z,8.57
2023-09-06T21:49:33.429Z,7.85
2023-09-06T21:52:18.956Z,5.45
2023-09-06T21:55:05.625Z,7.93
2023-09-06T21:58:03.255Z,5.88
2023-09-06T22:00:57.296Z,5.85
2023-09-06T22:04:02.159Z,5.40
2023-09-06T22:07:10.714Z,6.22
2023-09-06T22:10:15.762Z,5.20
2023-09-06T22:13:20.886Z,6.55
2023-09-06T22:16:07.081Z,5.97
2023-09-06T22:18:54.628Z,5.25
2023-09-06T22:21:40.407Z,8.10
2023-09-06T22:24:27.544Z,5.82
2023-09-06T22:27:13.018Z,5.53
2023-09-06T22:29:58.952Z,6.63
2023-09-06T22:32:44.769Z,7.70
2023-09-06T22:35:30.664Z,7.05
2023-09-06T22:38:16.285Z,5.35
2023-09-06T22:41:03.191Z,6.78
2023-09-06T22:43:49.305Z,6.05
2023-09-06T22:46:35.228Z,6.03
2023-09-06T22:49:21.222Z,6.47
2023-09-06T22:52:08.160Z,5.75
2023-09-06T22:54:54.232Z,7.28
2023-09-06T22:57:41.550Z,6.55
2023-09-06T23:00:27.532Z,7.20
2023-09-06T23:03:15.179Z,5.82
2023-09-06T23:06:01.422Z,6.70
2023-09-06T23:08:47.438Z,6.15
2023-09-06T23:11:35.448Z,6.10
2023-09-06T23:14:25.122Z,5.97
2023-09-06T23:17:13.645Z,6.40
2023-09-06T23:20:00.994Z,7.53
2023-09-06T23:22:48.593Z,6.28
2023-09-06T23:25:37.644Z,10.57
2023-09-06T23:28:24.774Z,6.45
2023-09-06T23:31:14.323Z,6.32
2023-09-06T23:34:03.272Z,6.72
2023-09-06T23:36:49.418Z,7.45
2023-09-06T23:39:35.176Z,5.60
2023-09-06T23:42:21.082Z,6.40
2023-09-06T23:45:07.226Z,5.75
2023-09-06T23:47:57.743Z,6.10
2023-09-06T23:50:45.335Z,8.75
2023-09-06T23:53:31.085Z,10.07
2023-09-06T23:56:18.248Z,7.43
2023-09-06T23:59:05.192Z,6.15
